Santa Isabel, Brazil
Current Conditions -  °F | °C
As of 11:00 PM on Tuesday 21 Oct 2014 (Local Time) from SBAN Reporting Station
Thunderstorm Thunderstorm  
Wind Chill: 72°   Ceiling: Unl
Heat Index: 72°   Visibility: 6mi
Dew Point: 59°   Wind: 13mph
Humidity: 64%   Direction: 50°NE
Pressure: 30.09"   Gusts: NA
Location:  15.3°S, 49.43°W
Report Text: SBAN 220100Z 05011KT 9999 VCTS FEW030 FEW035CB 22/15 Q1019
Loading
Personal Weather Stations






























Interactive Weather Map
Tropical Storm Tracking
New forecast layout! Learn more

10-Day Weather Forecast

Advertisements
Track Severe Weather on mobile